createdAt,value
2018-09-23T00:00:36.201Z,11.83
2018-09-23T00:01:35.741Z,11.87
2018-09-23T00:02:35.667Z,11.88
2018-09-23T00:03:35.627Z,11.95
2018-09-23T00:04:35.595Z,11.95
2018-09-23T00:05:35.562Z,11.97
2018-09-23T00:06:35.526Z,12.02
2018-09-23T00:07:35.496Z,11.94
2018-09-23T00:08:35.461Z,11.97
2018-09-23T00:09:35.421Z,11.97
2018-09-23T00:10:35.385Z,11.95
2018-09-23T00:11:35.348Z,11.97
2018-09-23T00:12:35.313Z,11.97
2018-09-23T00:13:35.279Z,11.95
2018-09-23T00:14:35.248Z,11.99
2018-09-23T00:15:35.210Z,11.97
2018-09-23T00:16:35.184Z,12.00
2018-09-23T00:17:35.143Z,11.97
2018-09-23T00:18:35.105Z,12.00
2018-09-23T00:19:35.069Z,12.04
2018-09-23T00:20:35.041Z,12.06
2018-09-23T00:21:34.995Z,11.97
2018-09-23T00:22:34.962Z,12.06
2018-09-23T00:23:34.931Z,12.09
2018-09-23T00:24:34.896Z,12.12
2018-09-23T00:25:34.900Z,12.02
2018-09-23T00:26:34.823Z,11.97
2018-09-23T00:27:34.785Z,12.03
2018-09-23T00:28:34.752Z,12.04
2018-09-23T00:29:34.726Z,11.99
2018-09-23T00:30:34.712Z,11.99
2018-09-23T00:31:34.648Z,11.99
2018-09-23T00:32:34.615Z,11.83
2018-09-23T00:33:34.577Z,11.88
2018-09-23T00:34:35.166Z,11.94
2018-09-23T00:35:34.539Z,11.99
2018-09-23T00:36:34.479Z,11.99
2018-09-23T00:37:34.442Z,11.99
2018-09-23T00:38:34.400Z,12.04
2018-09-23T00:39:34.364Z,11.97
2018-09-23T00:40:34.332Z,12.04
2018-09-23T00:41:34.309Z,11.97
2018-09-23T00:42:34.264Z,11.91
2018-09-23T00:43:34.222Z,12.00
2018-09-23T00:44:34.188Z,11.99
2018-09-23T00:45:34.160Z,11.97
2018-09-23T00:46:34.119Z,11.99
2018-09-23T00:47:34.084Z,12.02
2018-09-23T00:48:34.053Z,11.88
2018-09-23T00:49:34.023Z,11.95
2018-09-23T00:50:33.985Z,11.87
2018-09-23T00:51:33.943Z,11.99
2018-09-23T00:52:33.909Z,11.97
2018-09-23T00:53:33.875Z,11.95
2018-09-23T00:54:33.842Z,11.87
2018-09-23T00:55:33.806Z,11.95
2018-09-23T00:56:34.007Z,11.88
2018-09-23T00:57:33.736Z,11.84
2018-09-23T00:58:33.700Z,11.97
2018-09-23T00:59:33.668Z,11.87
2018-09-23T01:00:34.041Z,11.84
2018-09-23T01:01:33.592Z,11.81
2018-09-23T01:02:33.560Z,11.87
2018-09-23T01:03:33.524Z,11.84
2018-09-23T01:04:33.488Z,11.81
2018-09-23T01:05:33.453Z,11.80
2018-09-23T01:06:33.416Z,11.81
2018-09-23T01:07:33.380Z,11.83
2018-09-23T01:08:33.344Z,11.81
2018-09-23T01:09:33.314Z,11.84
2018-09-23T01:10:33.278Z,11.80
2018-09-23T01:11:33.239Z,11.94
2018-09-23T01:12:33.208Z,11.84
2018-09-23T01:13:33.174Z,11.77
2018-09-23T01:14:33.133Z,11.75
2018-09-23T01:15:33.101Z,11.80
2018-09-23T01:16:33.062Z,11.72
2018-09-23T01:17:33.044Z,11.70
2018-09-23T01:18:32.998Z,11.81
2018-09-23T01:19:32.963Z,11.78
2018-09-23T01:20:32.939Z,11.78
2018-09-23T01:21:32.886Z,11.80
2018-09-23T01:22:32.851Z,11.86
2018-09-23T01:23:32.833Z,11.78
2018-09-23T01:24:32.779Z,11.81
2018-09-23T01:25:32.744Z,11.80
2018-09-23T01:26:33.148Z,11.77
2018-09-23T01:27:32.682Z,11.80
2018-09-23T01:28:32.641Z,11.80
2018-09-23T01:29:33.164Z,11.81
2018-09-23T01:30:32.568Z,11.83
2018-09-23T01:31:32.530Z,11.80
2018-09-23T01:32:32.500Z,11.77
2018-09-23T01:33:32.460Z,11.86
2018-09-23T01:34:32.424Z,11.83
2018-09-23T01:35:33.175Z,11.87
2018-09-23T01:36:32.360Z,11.81
2018-09-23T01:37:32.323Z,11.78
2018-09-23T01:38:32.284Z,11.86
2018-09-23T01:39:32.247Z,11.80
2018-09-23T01:40:32.212Z,11.86
2018-09-23T01:41:32.175Z,11.84
2018-09-23T01:42:32.145Z,11.81
2018-09-23T01:43:32.108Z,11.83
2018-09-23T01:44:32.077Z,11.84
2018-09-23T01:45:32.040Z,11.81
2018-09-23T01:46:32.003Z,11.83
2018-09-23T01:47:31.970Z,11.86
2018-09-23T01:48:31.931Z,11.83
2018-09-23T01:49:31.901Z,11.78
2018-09-23T01:50:31.864Z,11.84
2018-09-23T01:51:31.833Z,11.84
2018-09-23T01:52:31.803Z,11.78
2018-09-23T01:53:31.753Z,11.83
2018-09-23T01:54:31.719Z,11.81
2018-09-23T01:55:31.684Z,11.88
2018-09-23T01:56:31.651Z,11.86
2018-09-23T01:57:31.619Z,11.90
2018-09-23T01:58:31.579Z,11.84
2018-09-23T01:59:31.544Z,11.88
2018-09-23T02:00:31.510Z,11.84
2018-09-23T02:01:31.473Z,11.86
2018-09-23T02:02:31.437Z,11.83
2018-09-23T02:03:31.405Z,11.90
2018-09-23T02:04:31.372Z,11.81
2018-09-23T02:05:31.331Z,11.80
2018-09-23T02:06:31.295Z,11.80
2018-09-23T02:07:31.261Z,11.84
2018-09-23T02:08:31.225Z,11.81
2018-09-23T02:09:31.194Z,11.84
2018-09-23T02:10:31.155Z,11.86
2018-09-23T02:11:31.122Z,11.83
2018-09-23T02:12:31.085Z,11.81
2018-09-23T02:13:31.050Z,11.83
2018-09-23T02:14:31.019Z,11.81
2018-09-23T02:15:31.006Z,11.87
2018-09-23T02:16:30.946Z,11.90
2018-09-23T02:17:30.910Z,11.81
2018-09-23T02:18:30.877Z,11.84
2018-09-23T02:19:30.834Z,11.87
2018-09-23T02:20:30.798Z,11.84
2018-09-23T02:21:30.770Z,11.81
2018-09-23T02:22:30.767Z,11.83
2018-09-23T02:23:30.696Z,11.86
2018-09-23T02:24:30.661Z,11.84
2018-09-23T02:25:30.628Z,11.97
2018-09-23T02:26:30.595Z,11.97
2018-09-23T02:27:30.561Z,11.91
2018-09-23T02:28:30.521Z,11.97
2018-09-23T02:29:30.510Z,11.97
2018-09-23T02:30:30.456Z,11.91
2018-09-23T02:31:31.024Z,11.97
2018-09-23T02:32:30.388Z,11.97
2018-09-23T02:33:30.399Z,11.97
2018-09-23T02:34:31.108Z,12.02
2018-09-23T02:35:30.278Z,11.95
2018-09-23T02:36:30.242Z,11.94
2018-09-23T02:37:30.237Z,11.91
2018-09-23T02:38:30.172Z,11.88
2018-09-23T02:39:30.133Z,11.84
2018-09-23T02:40:30.095Z,11.88
2018-09-23T02:41:30.065Z,11.97
2018-09-23T02:42:30.029Z,11.94
2018-09-23T02:43:30.000Z,11.97
2018-09-23T02:44:29.967Z,11.99
2018-09-23T02:45:29.923Z,11.99
2018-09-23T02:46:29.885Z,11.97
2018-09-23T02:47:29.853Z,11.87
2018-09-23T02:48:29.816Z,11.99
2018-09-23T02:49:29.782Z,11.90
2018-09-23T02:50:29.783Z,11.94
2018-09-23T02:51:29.710Z,11.99
2018-09-23T02:52:29.675Z,11.97
2018-09-23T02:53:29.640Z,11.94
2018-09-23T02:54:29.606Z,11.97
2018-09-23T02:55:29.582Z,12.02
2018-09-23T02:56:29.535Z,11.94
2018-09-23T02:57:29.503Z,11.91
2018-09-23T02:58:29.465Z,11.94
2018-09-23T02:59:29.452Z,11.87
2018-09-23T03:00:29.431Z,11.88
2018-09-23T03:01:29.388Z,11.97
2018-09-23T03:02:29.328Z,11.91
2018-09-23T03:03:29.286Z,11.95
2018-09-23T03:04:29.252Z,11.87
2018-09-23T03:05:29.218Z,11.91
2018-09-23T03:06:29.192Z,11.94
2018-09-23T03:07:29.147Z,11.97
2018-09-23T03:08:29.140Z,11.99
2018-09-23T03:09:29.091Z,11.86
2018-09-23T03:10:29.045Z,11.87
2018-09-23T03:11:29.013Z,11.86
2018-09-23T03:12:28.969Z,11.86
2018-09-23T03:13:28.938Z,11.95
2018-09-23T03:14:28.908Z,11.83
2018-09-23T03:15:28.870Z,11.81
2018-09-23T03:16:28.833Z,11.78
2018-09-23T03:17:28.796Z,11.87
2018-09-23T03:18:28.768Z,11.81
2018-09-23T03:19:28.758Z,11.80
2018-09-23T03:20:28.688Z,11.77
2018-09-23T03:21:28.649Z,11.88
2018-09-23T03:22:28.623Z,11.81
2018-09-23T03:23:28.579Z,11.84
2018-09-23T03:24:28.548Z,11.90
2018-09-23T03:25:28.512Z,11.90
2018-09-23T03:26:28.489Z,11.81
2018-09-23T03:27:28.451Z,11.81
2018-09-23T03:28:28.442Z,11.78
2018-09-23T03:29:28.372Z,11.86
2018-09-23T03:30:28.333Z,11.86
2018-09-23T03:31:29.085Z,11.78
2018-09-23T03:32:29.088Z,11.88
2018-09-23T03:33:28.231Z,11.75
2018-09-23T03:34:28.194Z,11.84
2018-09-23T03:35:28.164Z,11.91
2018-09-23T03:36:28.124Z,11.90
2018-09-23T03:37:28.099Z,11.80
2018-09-23T03:38:28.050Z,11.83
2018-09-23T03:39:28.019Z,11.84
2018-09-23T03:40:27.983Z,11.95
2018-09-23T03:41:27.951Z,11.83
2018-09-23T03:42:27.910Z,11.84
2018-09-23T03:43:27.876Z,11.97
2018-09-23T03:44:27.842Z,11.95
2018-09-23T03:45:27.807Z,11.88
2018-09-23T03:46:27.777Z,11.97
2018-09-23T03:47:27.751Z,11.84
2018-09-23T03:48:27.704Z,11.87
2018-09-23T03:49:27.667Z,11.95
2018-09-23T03:50:27.853Z,11.81
2018-09-23T03:51:27.616Z,11.84
2018-09-23T03:52:27.560Z,11.84
2018-09-23T03:53:27.525Z,11.84
2018-09-23T03:54:27.488Z,11.81
2018-09-23T03:55:27.455Z,11.83
2018-09-23T03:56:27.420Z,11.90
2018-09-23T03:57:27.384Z,11.88
2018-09-23T03:58:27.346Z,11.91
2018-09-23T03:59:27.311Z,11.88
2018-09-23T04:00:27.281Z,11.84
2018-09-23T04:01:27.246Z,11.86
2018-09-23T04:02:27.208Z,11.80
2018-09-23T04:03:27.168Z,11.81
2018-09-23T04:04:27.144Z,11.81
2018-09-23T04:05:27.106Z,11.83
2018-09-23T04:06:27.072Z,11.84
2018-09-23T04:07:27.040Z,11.90
2018-09-23T04:08:27.005Z,11.83
2018-09-23T04:09:26.972Z,11.84
2018-09-23T04:10:26.936Z,11.86
2018-09-23T04:11:26.909Z,11.90
2018-09-23T04:12:26.857Z,11.83
2018-09-23T04:13:26.823Z,11.81
2018-09-23T04:14:26.792Z,11.83
2018-09-23T04:15:26.750Z,11.84
2018-09-23T04:16:26.714Z,11.84
2018-09-23T04:17:26.678Z,11.84
2018-09-23T04:18:26.672Z,11.81
2018-09-23T04:19:26.605Z,11.91
2018-09-23T04:20:26.570Z,11.84
2018-09-23T04:21:26.541Z,11.83
2018-09-23T04:22:26.516Z,11.75
2018-09-23T04:23:26.463Z,11.86
2018-09-23T04:24:26.429Z,11.87
2018-09-23T04:25:26.403Z,11.78
2018-09-23T04:26:26.366Z,11.83
2018-09-23T04:27:26.696Z,11.84
2018-09-23T04:28:26.296Z,11.83
2018-09-23T04:29:26.257Z,11.83
2018-09-23T04:30:26.217Z,11.83
2018-09-23T04:31:26.187Z,11.88
2018-09-23T04:32:26.150Z,11.87
2018-09-23T04:33:26.117Z,11.84
2018-09-23T04:34:26.082Z,11.84
2018-09-23T04:35:26.043Z,11.94
2018-09-23T04:36:26.004Z,11.97
2018-09-23T04:37:25.977Z,11.94
2018-09-23T04:38:25.937Z,11.87
2018-09-23T04:39:25.904Z,11.84
2018-09-23T04:40:25.872Z,11.97
2018-09-23T04:41:25.831Z,11.91
2018-09-23T04:42:25.798Z,11.99
2018-09-23T04:43:25.757Z,11.99
2018-09-23T04:44:25.729Z,11.87
2018-09-23T04:45:25.691Z,11.83
2018-09-23T04:46:25.652Z,11.99
2018-09-23T04:47:25.619Z,11.97
2018-09-23T04:48:25.586Z,11.88
2018-09-23T04:49:25.573Z,12.03
2018-09-23T04:50:25.508Z,12.02
2018-09-23T04:51:25.525Z,11.95
2018-09-23T04:52:25.444Z,12.06
2018-09-23T04:53:25.415Z,11.99
2018-09-23T04:54:25.379Z,11.97
2018-09-23T04:55:25.470Z,12.03
2018-09-23T04:56:25.310Z,12.09
2018-09-23T04:57:25.276Z,11.99
2018-09-23T04:58:25.228Z,11.97
2018-09-23T04:59:25.193Z,12.04
2018-09-23T05:00:25.163Z,11.97
2018-09-23T05:01:25.142Z,11.97
2018-09-23T05:02:25.090Z,11.91
2018-09-23T05:03:25.589Z,11.95
2018-09-23T05:04:25.016Z,11.99
2018-09-23T05:05:25.592Z,11.95
2018-09-23T05:06:24.987Z,12.07
2018-09-23T05:07:24.940Z,11.97
2018-09-23T05:08:24.886Z,11.91
2018-09-23T05:09:24.847Z,12.00
2018-09-23T05:10:24.810Z,11.99
2018-09-23T05:11:24.783Z,11.97
2018-09-23T05:12:24.736Z,12.02
2018-09-23T05:13:24.702Z,12.03
2018-09-23T05:14:24.923Z,12.00
2018-09-23T05:15:25.164Z,12.06
2018-09-23T05:16:24.598Z,12.09
2018-09-23T05:17:24.564Z,12.06
2018-09-23T05:18:24.532Z,11.99
2018-09-23T05:19:24.497Z,12.00
2018-09-23T05:20:24.461Z,12.03
2018-09-23T05:21:24.420Z,12.04
2018-09-23T05:22:24.397Z,11.97
2018-09-23T05:23:24.356Z,12.03
2018-09-23T05:24:24.326Z,12.00
2018-09-23T05:25:24.275Z,12.03
2018-09-23T05:26:24.246Z,12.03
2018-09-23T05:27:24.211Z,12.06
2018-09-23T05:28:24.173Z,12.10
2018-09-23T05:29:24.157Z,12.00
2018-09-23T05:30:24.117Z,12.07
2018-09-23T05:31:24.067Z,12.12
2018-09-23T05:32:24.040Z,12.02
2018-09-23T05:33:23.998Z,12.03
2018-09-23T05:34:23.967Z,12.03
2018-09-23T05:35:23.950Z,12.00
2018-09-23T05:36:23.895Z,12.03
2018-09-23T05:37:23.883Z,12.04
2018-09-23T05:38:23.827Z,12.10
2018-09-23T05:39:23.798Z,12.07
2018-09-23T05:40:23.761Z,12.15
2018-09-23T05:41:23.719Z,12.10
2018-09-23T05:42:23.685Z,12.17
2018-09-23T05:43:23.649Z,12.21
2018-09-23T05:44:23.613Z,12.04
2018-09-23T05:45:23.589Z,12.10
2018-09-23T05:46:23.544Z,12.09
2018-09-23T05:47:23.511Z,12.09
2018-09-23T05:48:23.473Z,12.17
2018-09-23T05:49:23.439Z,12.10
2018-09-23T05:50:23.405Z,12.07
2018-09-23T05:51:23.375Z,12.24
2018-09-23T05:52:23.330Z,12.17
2018-09-23T05:53:23.311Z,12.10
2018-09-23T05:54:23.284Z,12.09
2018-09-23T05:55:23.230Z,12.12
2018-09-23T05:56:23.228Z,12.17
2018-09-23T05:57:23.157Z,12.18
2018-09-23T05:58:23.147Z,12.12
2018-09-23T05:59:23.102Z,12.15
2018-09-23T06:00:23.089Z,12.15
2018-09-23T06:01:23.018Z,12.13
2018-09-23T06:02:22.988Z,12.21
2018-09-23T06:03:22.950Z,12.18
2018-09-23T06:04:22.919Z,12.15
2018-09-23T06:05:22.879Z,12.13
2018-09-23T06:06:22.845Z,12.17
2018-09-23T06:07:22.821Z,12.18
2018-09-23T06:08:22.772Z,12.18
2018-09-23T06:09:22.734Z,12.18
2018-09-23T06:10:22.704Z,12.20
2018-09-23T06:11:22.695Z,12.24
2018-09-23T06:12:22.632Z,12.27
2018-09-23T06:13:22.606Z,12.22
2018-09-23T06:14:22.562Z,12.31
2018-09-23T06:15:22.529Z,12.24
2018-09-23T06:16:22.496Z,12.31
2018-09-23T06:17:22.467Z,12.36
2018-09-23T06:18:22.483Z,12.35
2018-09-23T06:19:22.405Z,12.36
2018-09-23T06:20:22.353Z,12.25
2018-09-23T06:21:22.327Z,12.39
2018-09-23T06:22:22.281Z,12.25
2018-09-23T06:23:22.249Z,12.39
2018-09-23T06:24:22.215Z,12.39
2018-09-23T06:25:22.262Z,12.35
2018-09-23T06:26:22.147Z,12.37
2018-09-23T06:27:22.109Z,12.35
2018-09-23T06:28:22.078Z,12.47
2018-09-23T06:29:22.042Z,12.37
2018-09-23T06:30:22.013Z,12.47
2018-09-23T06:31:21.972Z,12.40
2018-09-23T06:32:21.946Z,12.37
2018-09-23T06:33:21.902Z,12.40
2018-09-23T06:34:21.867Z,12.36
2018-09-23T06:35:21.840Z,12.50
2018-09-23T06:36:21.798Z,12.54
2018-09-23T06:37:21.771Z,12.53
2018-09-23T06:38:21.726Z,12.54
2018-09-23T06:39:21.696Z,12.49
2018-09-23T06:40:21.656Z,12.50
2018-09-23T06:41:21.645Z,12.55
2018-09-23T06:42:21.613Z,12.60
2018-09-23T06:43:21.556Z,12.60
2018-09-23T06:44:21.521Z,12.64
2018-09-23T06:45:21.483Z,12.75
2018-09-23T06:46:21.452Z,12.72
2018-09-23T06:47:21.426Z,12.73
2018-09-23T06:48:21.406Z,12.75
2018-09-23T06:49:21.352Z,12.78
2018-09-23T06:50:21.315Z,12.80
2018-09-23T06:51:21.281Z,12.86
2018-09-23T06:52:21.248Z,12.83
2018-09-23T06:53:21.209Z,12.83
2018-09-23T06:54:21.175Z,12.85
2018-09-23T06:55:21.141Z,12.85
2018-09-23T06:56:21.116Z,12.80
2018-09-23T06:57:21.099Z,12.79
2018-09-23T06:58:21.037Z,12.90
2018-09-23T06:59:21.043Z,12.85
2018-09-23T07:00:20.969Z,12.82
2018-09-23T07:01:20.936Z,12.85
2018-09-23T07:02:20.901Z,12.83
2018-09-23T07:03:20.872Z,12.90
2018-09-23T07:04:20.852Z,12.94
2018-09-23T07:05:20.795Z,12.93
2018-09-23T07:06:20.761Z,13.01
2018-09-23T07:07:20.727Z,12.93
2018-09-23T07:08:20.690Z,13.13
2018-09-23T07:09:20.661Z,13.04
2018-09-23T07:10:20.656Z,13.12
2018-09-23T07:11:20.592Z,13.12
2018-09-23T07:12:20.556Z,13.08
2018-09-23T07:13:20.527Z,13.11
2018-09-23T07:14:20.493Z,13.13
2018-09-23T07:15:20.454Z,13.11
2018-09-23T07:16:20.422Z,13.09
2018-09-23T07:17:20.643Z,13.08
2018-09-23T07:18:20.359Z,13.11
2018-09-23T07:19:20.330Z,13.03
2018-09-23T07:20:20.285Z,13.12
2018-09-23T07:21:20.248Z,13.12
2018-09-23T07:22:20.219Z,13.12
2018-09-23T07:23:20.182Z,13.12
2018-09-23T07:24:20.167Z,13.19
2018-09-23T07:25:20.113Z,13.20
2018-09-23T07:26:20.078Z,13.25
2018-09-23T07:27:20.047Z,13.30
2018-09-23T07:28:20.017Z,13.33
2018-09-23T07:29:19.985Z,13.39
2018-09-23T07:30:19.940Z,13.33
2018-09-23T07:31:19.912Z,13.35
2018-09-23T07:32:19.877Z,13.30
2018-09-23T07:33:19.838Z,13.44
2018-09-23T07:34:19.814Z,13.39
2018-09-23T07:35:19.771Z,13.41
2018-09-23T07:36:19.738Z,13.49
2018-09-23T07:37:19.742Z,13.49
2018-09-23T07:38:19.680Z,13.41
2018-09-23T07:39:19.699Z,13.38
2018-09-23T07:40:19.603Z,13.33
2018-09-23T07:41:19.572Z,13.28
2018-09-23T07:42:19.537Z,13.25
2018-09-23T07:43:19.500Z,13.23
2018-09-23T07:44:19.467Z,13.31
2018-09-23T07:45:19.433Z,13.23
2018-09-23T07:46:19.402Z,13.35
2018-09-23T07:47:19.370Z,13.33
2018-09-23T07:48:19.337Z,13.37
2018-09-23T07:49:19.303Z,13.39
2018-09-23T07:50:19.263Z,13.44
2018-09-23T07:51:19.233Z,13.52
2018-09-23T07:52:19.201Z,13.49
2018-09-23T07:53:19.170Z,13.54
2018-09-23T07:54:19.126Z,13.60
2018-09-23T07:55:19.107Z,13.60
2018-09-23T07:56:19.098Z,13.57
2018-09-23T07:57:19.032Z,13.57
2018-09-23T07:58:18.994Z,13.65
2018-09-23T07:59:18.974Z,13.67
2018-09-23T08:00:18.931Z,13.75
2018-09-23T08:01:18.904Z,13.70
2018-09-23T08:02:18.891Z,13.78
2018-09-23T08:03:18.842Z,13.85
2018-09-23T08:04:18.796Z,13.90
2018-09-23T08:05:18.759Z,13.89
2018-09-23T08:06:18.727Z,13.96
2018-09-23T08:07:18.697Z,13.89
2018-09-23T08:08:18.665Z,13.90
2018-09-23T08:09:18.634Z,13.86
2018-09-23T08:10:18.701Z,14.07
2018-09-23T08:11:18.558Z,14.04
2018-09-23T08:12:18.590Z,14.08
2018-09-23T08:13:18.528Z,14.15
2018-09-23T08:14:19.061Z,14.08
2018-09-23T08:15:18.422Z,14.17
2018-09-23T08:16:18.401Z,14.14
2018-09-23T08:17:18.379Z,14.20
2018-09-23T08:18:18.324Z,14.20
2018-09-23T08:19:18.413Z,14.20
2018-09-23T08:20:18.324Z,14.25
2018-09-23T08:21:18.249Z,14.23
2018-09-23T08:22:18.196Z,14.00
2018-09-23T08:23:18.289Z,14.22
2018-09-23T08:24:18.142Z,14.08
2018-09-23T08:25:18.302Z,14.20
2018-09-23T08:26:18.072Z,14.18
2018-09-23T08:27:18.032Z,14.08
2018-09-23T08:28:17.994Z,14.20
2018-09-23T08:29:17.981Z,14.14
2018-09-23T08:30:17.951Z,14.11
2018-09-23T08:31:17.895Z,14.18
2018-09-23T08:32:17.870Z,14.18
2018-09-23T08:33:17.835Z,14.15
2018-09-23T08:34:17.794Z,14.17
2018-09-23T08:35:17.758Z,14.22
2018-09-23T08:36:17.731Z,14.28
2018-09-23T08:37:17.714Z,14.11
2018-09-23T08:38:17.662Z,14.20
2018-09-23T08:39:17.628Z,14.18
2018-09-23T08:40:17.597Z,14.17
2018-09-23T08:41:17.572Z,14.32
2018-09-23T08:42:17.527Z,14.28
2018-09-23T08:43:17.561Z,14.25
2018-09-23T08:44:17.468Z,14.12
2018-09-23T08:45:17.432Z,14.14
2018-09-23T08:46:17.396Z,14.20
2018-09-23T08:47:17.364Z,14.17
2018-09-23T08:48:17.365Z,14.15
2018-09-23T08:49:17.294Z,14.23
2018-09-23T08:50:17.270Z,14.18
2018-09-23T08:51:17.230Z,14.17
2018-09-23T08:52:17.279Z,14.29
2018-09-23T08:53:17.163Z,14.28
2018-09-23T08:54:17.139Z,14.30
2018-09-23T08:55:17.101Z,14.37
2018-09-23T08:56:17.067Z,14.40
2018-09-23T08:57:17.089Z,14.33
2018-09-23T08:58:16.999Z,14.36
2018-09-23T08:59:16.976Z,14.37
2018-09-23T09:00:16.969Z,14.45
2018-09-23T09:01:16.899Z,14.50
2018-09-23T09:02:16.901Z,14.51
2018-09-23T09:03:16.835Z,14.54
2018-09-23T09:04:16.797Z,14.48
2018-09-23T09:05:16.792Z,14.50
2018-09-23T09:06:16.755Z,14.47
2018-09-23T09:07:16.701Z,14.62
2018-09-23T09:08:16.692Z,14.59
2018-09-23T09:09:16.650Z,14.53
2018-09-23T09:10:16.605Z,14.59
2018-09-23T09:11:16.577Z,14.62
2018-09-23T09:12:16.567Z,14.69
2018-09-23T09:13:16.505Z,14.77
2018-09-23T09:14:16.469Z,14.88
2018-09-23T09:15:16.439Z,14.86
2018-09-23T09:16:16.401Z,15.00
2018-09-23T09:17:16.374Z,15.02
2018-09-23T09:18:16.418Z,15.22
2018-09-23T09:19:16.308Z,15.15
2018-09-23T09:20:16.271Z,15.07
2018-09-23T09:21:16.247Z,15.07
2018-09-23T09:22:16.211Z,15.00
2018-09-23T09:23:16.175Z,15.04
2018-09-23T09:24:16.152Z,15.03
2018-09-23T09:25:16.139Z,15.06
2018-09-23T09:26:16.078Z,14.99
2018-09-23T09:27:16.108Z,14.94
2018-09-23T09:28:16.027Z,15.00
2018-09-23T09:29:15.989Z,15.04
2018-09-23T09:30:15.951Z,15.04
2018-09-23T09:31:15.923Z,14.99
2018-09-23T09:32:15.886Z,14.99
2018-09-23T09:33:15.862Z,15.09
2018-09-23T09:34:15.823Z,15.10
2018-09-23T09:35:16.153Z,15.10
2018-09-23T09:36:15.779Z,15.04
2018-09-23T09:37:15.725Z,15.21
2018-09-23T09:38:15.701Z,15.09
2018-09-23T09:39:15.660Z,15.10
2018-09-23T09:40:15.626Z,15.04
2018-09-23T09:41:15.594Z,15.10
2018-09-23T09:42:15.569Z,15.07
2018-09-23T09:43:15.521Z,15.06
2018-09-23T09:44:15.494Z,15.04
2018-09-23T09:45:15.462Z,15.06
2018-09-23T09:46:15.431Z,15.04
2018-09-23T09:47:15.391Z,15.14
2018-09-23T09:48:15.386Z,15.11
2018-09-23T09:49:15.332Z,15.07
2018-09-23T09:50:15.295Z,15.03
2018-09-23T09:51:15.264Z,15.09
2018-09-23T09:52:15.229Z,15.11
2018-09-23T09:53:15.205Z,15.21
2018-09-23T09:54:15.172Z,15.15
2018-09-23T09:55:15.134Z,15.02
2018-09-23T09:56:15.128Z,14.92
2018-09-23T09:57:15.067Z,14.94
2018-09-23T09:58:15.034Z,14.86
2018-09-23T09:59:15.005Z,14.96
2018-09-23T10:00:14.991Z,14.94
2018-09-23T10:01:14.931Z,15.02
2018-09-23T10:02:15.033Z,15.09
2018-09-23T10:03:14.879Z,15.11
2018-09-23T10:04:14.865Z,15.29
2018-09-23T10:05:14.807Z,15.39
2018-09-23T10:06:14.778Z,15.42
2018-09-23T10:07:14.746Z,15.64
2018-09-23T10:08:14.707Z,15.75
2018-09-23T10:09:14.682Z,15.91
2018-09-23T10:10:14.650Z,15.92
2018-09-23T10:11:14.609Z,15.90
2018-09-23T10:12:14.588Z,15.86
2018-09-23T10:13:14.551Z,15.92
2018-09-23T10:14:14.459Z,15.98
2018-09-23T10:15:14.476Z,15.84
2018-09-23T10:16:14.448Z,15.91
2018-09-23T10:17:14.415Z,15.88
2018-09-23T10:18:14.389Z,15.92
2018-09-23T10:19:14.360Z,15.91
2018-09-23T10:20:14.324Z,15.84
2018-09-23T10:21:14.231Z,15.75
2018-09-23T10:22:14.257Z,15.72
2018-09-23T10:23:14.337Z,15.75
2018-09-23T10:24:14.190Z,15.70
2018-09-23T10:25:14.136Z,15.80
2018-09-23T10:26:14.192Z,15.84
2018-09-23T10:27:14.040Z,15.76
2018-09-23T10:28:14.023Z,15.67
2018-09-23T10:29:13.980Z,15.67
2018-09-23T10:30:13.950Z,15.68
2018-09-23T10:31:13.985Z,15.67
2018-09-23T10:32:13.883Z,15.73
2018-09-23T10:33:13.851Z,15.79
2018-09-23T10:34:13.814Z,15.75
2018-09-23T10:35:13.786Z,15.65
2018-09-23T10:36:14.838Z,15.67
2018-09-23T10:37:13.719Z,15.70
2018-09-23T10:38:13.760Z,15.62
2018-09-23T10:39:13.705Z,15.65
2018-09-23T10:40:13.623Z,15.72
2018-09-23T10:41:13.612Z,15.59
2018-09-23T10:42:13.567Z,15.64
2018-09-23T10:43:13.523Z,15.54
2018-09-23T10:44:13.546Z,15.49
2018-09-23T10:45:13.464Z,15.51
2018-09-23T10:46:13.442Z,15.54
2018-09-23T10:47:13.396Z,15.52
2018-09-23T10:48:13.384Z,15.42
2018-09-23T10:49:13.335Z,15.39
2018-09-23T10:50:13.355Z,15.25
2018-09-23T10:51:13.315Z,15.19
2018-09-23T10:52:13.234Z,15.04
2018-09-23T10:53:13.253Z,14.97
2018-09-23T10:54:13.218Z,14.94
2018-09-23T10:55:13.135Z,14.81
2018-09-23T10:56:13.102Z,14.77
2018-09-23T10:57:13.067Z,14.72
2018-09-23T10:58:13.037Z,14.58
2018-09-23T10:59:13.057Z,14.62
2018-09-23T11:00:12.970Z,14.45
2018-09-23T11:01:12.989Z,14.45
2018-09-23T11:02:12.967Z,14.50
2018-09-23T11:03:12.928Z,14.51
2018-09-23T11:04:12.904Z,14.43
2018-09-23T11:05:12.859Z,14.41
2018-09-23T11:06:12.823Z,14.32
2018-09-23T11:07:12.833Z,14.18
2018-09-23T11:08:12.758Z,14.18
2018-09-23T11:09:12.725Z,14.17
2018-09-23T11:10:12.694Z,14.17
2018-09-23T11:11:12.660Z,14.14
2018-09-23T11:12:12.573Z,14.05
2018-09-23T11:13:12.612Z,13.99
2018-09-23T11:14:12.560Z,14.05
2018-09-23T11:15:12.567Z,14.05
2018-09-23T11:16:12.493Z,14.11
2018-09-23T11:17:12.461Z,13.99
2018-09-23T11:18:12.426Z,13.89
2018-09-23T11:19:12.393Z,13.99
2018-09-23T11:20:12.360Z,14.04
2018-09-23T11:21:12.327Z,14.03
2018-09-23T11:22:12.291Z,13.97
2018-09-23T11:23:12.286Z,13.87
2018-09-23T11:24:12.225Z,13.87
2018-09-23T11:25:12.191Z,13.83
2018-09-23T11:26:12.158Z,13.95
2018-09-23T11:27:12.125Z,13.92
2018-09-23T11:28:12.035Z,13.92
2018-09-23T11:29:12.051Z,13.92
2018-09-23T11:30:12.026Z,13.90
2018-09-23T11:31:11.987Z,13.87
2018-09-23T11:32:11.962Z,13.85
2018-09-23T11:33:11.921Z,13.65
2018-09-23T11:34:11.884Z,13.68
2018-09-23T11:35:11.851Z,13.70
2018-09-23T11:36:11.818Z,13.72
2018-09-23T11:37:11.786Z,13.71
2018-09-23T11:38:11.774Z,13.75
2018-09-23T11:39:11.715Z,13.72
2018-09-23T11:40:11.683Z,13.72
2018-09-23T11:41:12.104Z,13.77
2018-09-23T11:42:11.616Z,13.67
2018-09-23T11:43:11.580Z,13.75
2018-09-23T11:44:11.547Z,13.71
2018-09-23T11:45:11.510Z,13.78
2018-09-23T11:46:11.479Z,13.62
2018-09-23T11:47:11.390Z,13.63
2018-09-23T11:48:11.415Z,13.63
2018-09-23T11:49:11.384Z,13.54
2018-09-23T11:50:11.344Z,13.54
2018-09-23T11:51:11.310Z,13.57
2018-09-23T11:52:11.278Z,13.54
2018-09-23T11:53:11.242Z,13.52
2018-09-23T11:54:11.251Z,13.38
2018-09-23T11:55:11.171Z,13.38
2018-09-23T11:56:11.141Z,13.46
2018-09-23T11:57:11.106Z,13.35
2018-09-23T11:58:11.076Z,13.27
2018-09-23T11:59:11.471Z,13.31
2018-09-23T12:00:11.007Z,13.28
2018-09-23T12:01:10.969Z,13.28
2018-09-23T12:02:10.989Z,13.27
2018-09-23T12:03:10.897Z,13.30
2018-09-23T12:04:10.865Z,13.08
2018-09-23T12:05:10.830Z,13.11
2018-09-23T12:06:10.797Z,13.20
2018-09-23T12:07:10.758Z,13.05
2018-09-23T12:08:10.737Z,13.09
2018-09-23T12:09:10.697Z,13.09
2018-09-23T12:10:10.609Z,13.08
2018-09-23T12:11:10.620Z,13.08
2018-09-23T12:12:10.591Z,13.05
2018-09-23T12:13:10.553Z,13.19
2018-09-23T12:14:10.526Z,13.04
2018-09-23T12:15:10.488Z,13.13
2018-09-23T12:16:10.452Z,13.05
2018-09-23T12:17:10.420Z,13.08
2018-09-23T12:18:10.391Z,13.03
2018-09-23T12:19:10.351Z,13.04
2018-09-23T12:20:10.317Z,13.05
2018-09-23T12:21:10.228Z,13.04
2018-09-23T12:22:10.190Z,13.03
2018-09-23T12:23:10.214Z,13.05
2018-09-23T12:24:10.173Z,13.11
2018-09-23T12:25:10.088Z,12.90
2018-09-23T12:26:10.052Z,13.00
2018-09-23T12:27:10.019Z,12.91
2018-09-23T12:28:10.037Z,12.98
2018-09-23T12:29:10.001Z,12.90
2018-09-23T12:30:10.005Z,12.93
2018-09-23T12:31:09.879Z,12.93
2018-09-23T12:32:09.848Z,12.91
2018-09-23T12:33:09.827Z,12.85
2018-09-23T12:34:09.776Z,12.86
2018-09-23T12:35:09.743Z,12.82
2018-09-23T12:36:09.731Z,12.82
2018-09-23T12:37:09.672Z,12.85
2018-09-23T12:38:09.692Z,12.82
2018-09-23T12:39:09.657Z,12.87
2018-09-23T12:40:09.627Z,12.76
2018-09-23T12:41:09.588Z,12.78
2018-09-23T12:42:09.555Z,12.72
2018-09-23T12:43:09.516Z,12.73
2018-09-23T12:44:09.486Z,12.70
2018-09-23T12:45:09.393Z,12.75
2018-09-23T12:46:09.524Z,12.73
2018-09-23T12:47:09.377Z,12.64
2018-09-23T12:48:09.345Z,12.67
2018-09-23T12:49:09.310Z,12.65
2018-09-23T12:50:09.273Z,12.53
2018-09-23T12:51:09.238Z,12.50
2018-09-23T12:52:09.154Z,12.50